Placida, Florida
Current Conditions -  °F | °C
As of 7:53 AM on Saturday 25 Oct 2014 (Local Time) from KPGD Reporting Station
Clear Clear  
Wind Chill: 63°   Ceiling: Unl
Heat Index: 63°   Visibility: 10mi
Dew Point: 58°   Wind: 9mph
Humidity: 84%   Direction: 360°N
Pressure: 29.99"   Gusts: NA
Location:  26.83°N, 82.26°W
Report Text: KPGD 251153Z 36008KT 10SM CLR 17/14 A2999 RMK AO2 SLP155 T01720144 10178 20167 51016
Loading
Personal Weather Stations






























Interactive Weather Map
Tropical Storm Tracking
New forecast layout! Learn more

10-Day Weather Forecast

Advertisements
Track Severe Weather on mobile